Merrittstown, Pennsylvania
Current Conditions -  °F | °C
As of 1:53 PM on Wednesday 26 Nov 2014 (Local Time) from KMGW Reporting Station
Haze Haze  
Wind Chill: 34°   Ceiling: 200
Heat Index: 34°   Visibility: 1mi
Dew Point: 30°   Wind: 0mph
Humidity: 85%   Direction: NA
Pressure: 30"   Gusts: NA
Location:  39.97°N, 79.88°W
Report Text: KMGW 261853Z 00000KT 1SM UP BR OVC002 01/M01 A3000 RMK AO2 UPB52SNE27B37E52 SLP170 P0001 T00111011
Loading
Personal Weather Stations






























Interactive Weather Map New forecast layout! Learn more

10-Day Weather Forecast

Advertisements
Track Severe Weather on mobile